Time;durP1;ratioP1;P1;durP2;ratioP2;P2;SDS_P1;SDS_P2;PMS_P1;PMS_P2;Temp;Humidity;BMP_temperature;BMP_pressure;BME280_temperature;BME280_humidity;BME280_pressure;Samples;Min_cycle;Max_cycle;Signal;HPM_P1;HPM_P2
2023/11/16 00:01:05;;;;;;;18.83;17.63;;;;;;;;;;5109748;28;20517;-76
2023/11/16 00:03:33;;;;;;;19.80;18.17;;;;;;;;;;5113756;28;20506;-76
2023/11/16 00:06:01;;;;;;;20.60;18.70;;;;;;;;;;5109838;28;20851;-76
2023/11/16 00:08:29;;;;;;;20.43;18.60;;;;;;;;;;5110271;28;20468;-75
2023/11/16 00:10:58;;;;;;;19.27;18.07;;;;;;;;;;5110171;28;20503;-76
2023/11/16 00:13:25;;;;;;;18.50;17.30;;;;;;;;;;5110435;28;20439;-73
2023/11/16 00:15:53;;;;;;;21.17;19.53;;;;;;;;;;5110079;28;20832;-72
2023/11/16 00:18:20;;;;;;;20.97;19.20;;;;;;;;;;5110238;28;20477;-74
2023/11/16 00:20:48;;;;;;;19.40;17.90;;;;;;;;;;5110444;28;20509;-72
2023/11/16 00:23:15;;;;;;;19.90;18.30;;;;;;;;;;5109798;28;20939;-74
2023/11/16 00:25:42;;;;;;;18.87;17.40;;;;;;;;;;5109617;28;20448;-74
2023/11/16 00:28:09;;;;;;;19.93;18.30;;;;;;;;;;5109882;28;20496;-72
2023/11/16 00:30:36;;;;;;;18.93;17.40;;;;;;;;;;5110565;28;20447;-73
2023/11/16 00:33:04;;;;;;;18.03;17.03;;;;;;;;;;5110135;28;20455;-73
2023/11/16 00:35:31;;;;;;;20.53;18.90;;;;;;;;;;5109755;28;20452;-73
2023/11/16 00:38:00;;;;;;;18.33;17.13;;;;;;;;;;5110024;28;20532;-74
2023/11/16 00:40:32;;;;;;;21.93;20.13;;;;;;;;;;5109946;28;20448;-74
2023/11/16 00:42:59;;;;;;;21.40;20.00;;;;;;;;;;5109649;28;20566;-73
2023/11/16 00:45:27;;;;;;;43.33;21.90;;;;;;;;;;5109612;28;20500;-73
2023/11/16 00:47:54;;;;;;;22.90;20.10;;;;;;;;;;5132251;27;20521;-73
2023/11/16 00:50:21;;;;;;;20.37;18.93;;;;;;;;;;5134213;27;20677;-73
2023/11/16 00:52:48;;;;;;;21.80;20.13;;;;;;;;;;5134246;27;20879;-72
2023/11/16 00:55:17;;;;;;;22.03;20.20;;;;;;;;;;5133433;27;20478;-73
2023/11/16 00:57:47;;;;;;;21.17;19.30;;;;;;;;;;5133616;27;21032;-73
2023/11/16 01:00:15;;;;;;;19.90;18.50;;;;;;;;;;5133742;27;20947;-74
2023/11/16 01:02:42;;;;;;;21.30;19.40;;;;;;;;;;5133844;27;20948;-73
2023/11/16 01:05:10;;;;;;;21.77;20.00;;;;;;;;;;5127366;27;20452;-73
2023/11/16 01:07:38;;;;;;;22.57;20.77;;;;;;;;;;5113183;28;20492;-73
2023/11/16 01:10:07;;;;;;;19.17;17.97;;;;;;;;;;5113311;28;20450;-73
2023/11/16 01:12:36;;;;;;;19.70;18.20;;;;;;;;;;5113118;28;21145;-73
2023/11/16 01:15:10;;;;;;;20.67;19.10;;;;;;;;;;5112584;28;20458;-73
2023/11/16 01:17:39;;;;;;;18.50;17.50;;;;;;;;;;5112728;28;20460;-73
2023/11/16 01:20:09;;;;;;;21.37;19.73;;;;;;;;;;5113403;28;20428;-73
2023/11/16 01:22:40;;;;;;;19.97;18.70;;;;;;;;;;5113080;28;20784;-73
2023/11/16 01:25:14;;;;;;;19.50;17.90;;;;;;;;;;5112573;28;20481;-74
2023/11/16 01:27:45;;;;;;;20.30;18.70;;;;;;;;;;5112878;28;20483;-74
2023/11/16 01:30:13;;;;;;;41.80;22.10;;;;;;;;;;5112903;28;20484;-72
2023/11/16 01:32:41;;;;;;;19.83;18.33;;;;;;;;;;5112752;28;20535;-73
2023/11/16 01:35:10;;;;;;;22.07;20.37;;;;;;;;;;5112550;28;20555;-73
2023/11/16 01:37:37;;;;;;;22.93;20.73;;;;;;;;;;5112947;28;20467;-73
2023/11/16 01:40:05;;;;;;;21.10;19.50;;;;;;;;;;5112774;28;20447;-73
2023/11/16 01:42:32;;;;;;;20.57;18.67;;;;;;;;;;5112412;28;20460;-73
2023/11/16 01:45:00;;;;;;;23.70;20.80;;;;;;;;;;5111818;28;20472;-73
2023/11/16 01:47:27;;;;;;;20.20;18.87;;;;;;;;;;5112171;28;21010;-73
2023/11/16 01:49:55;;;;;;;21.87;19.77;;;;;;;;;;5112677;28;20439;-73
2023/11/16 01:52:22;;;;;;;31.57;18.40;;;;;;;;;;5112878;28;20475;-74
2023/11/16 01:54:49;;;;;;;24.23;22.17;;;;;;;;;;5112166;28;20455;-73
2023/11/16 01:57:16;;;;;;;21.37;19.53;;;;;;;;;;5112264;28;20464;-73
2023/11/16 01:59:43;;;;;;;20.47;18.97;;;;;;;;;;5111073;28;20444;-75
2023/11/16 02:02:12;;;;;;;23.23;21.63;;;;;;;;;;5112489;28;20497;-73
2023/11/16 02:04:39;;;;;;;21.00;19.07;;;;;;;;;;5111525;28;20963;-74
2023/11/16 02:07:06;;;;;;;21.60;19.90;;;;;;;;;;5124428;27;20486;-73
2023/11/16 02:09:34;;;;;;;21.30;19.60;;;;;;;;;;5132715;27;20446;-73
2023/11/16 02:12:01;;;;;;;17.43;16.43;;;;;;;;;;5132522;27;20530;-73
2023/11/16 02:14:28;;;;;;;17.93;17.03;;;;;;;;;;5131881;27;21055;-74
2023/11/16 02:16:56;;;;;;;21.23;19.33;;;;;;;;;;5132787;27;20500;-74
2023/11/16 02:19:30;;;;;;;22.27;20.10;;;;;;;;;;5132710;27;20758;-74
2023/11/16 02:21:57;;;;;;;18.97;17.77;;;;;;;;;;5132519;27;20459;-74
2023/11/16 02:24:26;;;;;;;20.23;18.63;;;;;;;;;;5132089;27;20447;-72
2023/11/16 02:26:53;;;;;;;18.50;17.40;;;;;;;;;;5132123;27;20482;-73
2023/11/16 02:29:20;;;;;;;19.40;18.00;;;;;;;;;;5132467;27;20448;-73
2023/11/16 02:31:47;;;;;;;21.87;19.97;;;;;;;;;;5131872;27;20915;-72
2023/11/16 02:34:14;;;;;;;22.50;20.30;;;;;;;;;;5131938;27;20447;-74
2023/11/16 02:36:41;;;;;;;20.53;18.83;;;;;;;;;;5132278;27;20534;-72
2023/11/16 02:39:08;;;;;;;19.90;18.13;;;;;;;;;;5131821;27;20478;-72
2023/11/16 02:41:39;;;;;;;20.97;19.33;;;;;;;;;;5131961;27;20451;-74
2023/11/16 02:44:07;;;;;;;21.50;19.47;;;;;;;;;;5131133;27;20528;-72
2023/11/16 02:46:34;;;;;;;22.20;20.37;;;;;;;;;;5131699;27;20447;-73
2023/11/16 02:49:01;;;;;;;21.70;20.00;;;;;;;;;;5131884;27;20467;-73
2023/11/16 02:51:28;;;;;;;22.73;20.80;;;;;;;;;;5126477;27;20463;-74
2023/11/16 02:53:55;;;;;;;21.57;20.00;;;;;;;;;;5110693;28;20539;-73
2023/11/16 02:56:22;;;;;;;22.30;20.60;;;;;;;;;;5111226;28;20444;-74
2023/11/16 02:58:51;;;;;;;21.87;19.90;;;;;;;;;;5111378;28;20467;-73
2023/11/16 03:01:18;;;;;;;18.87;17.57;;;;;;;;;;5111471;28;20448;-73
2023/11/16 03:03:45;;;;;;;21.70;19.80;;;;;;;;;;5110908;28;20955;-74
2023/11/16 03:06:15;;;;;;;21.73;19.93;;;;;;;;;;5111211;28;20440;-73
2023/11/16 03:08:42;;;;;;;22.30;20.20;;;;;;;;;;5110995;28;20483;-73
2023/11/16 03:11:09;;;;;;;21.03;19.30;;;;;;;;;;5110629;28;20517;-73
2023/11/16 03:13:37;;;;;;;20.87;19.13;;;;;;;;;;5110927;28;20451;-73
2023/11/16 03:16:06;;;;;;;20.60;18.93;;;;;;;;;;5110616;28;20504;-73
2023/11/16 03:18:35;;;;;;;21.80;20.20;;;;;;;;;;5110697;28;20472;-72
2023/11/16 03:21:02;;;;;;;21.53;19.63;;;;;;;;;;5111064;28;20451;-73
2023/11/16 03:23:29;;;;;;;20.80;19.00;;;;;;;;;;5110643;28;20539;-73
2023/11/16 03:25:57;;;;;;;20.77;18.83;;;;;;;;;;5109481;28;20479;-72
2023/11/16 03:28:24;;;;;;;19.77;17.80;;;;;;;;;;5110402;28;20503;-74
2023/11/16 03:30:51;;;;;;;19.23;17.67;;;;;;;;;;5110843;28;20452;-73
2023/11/16 03:33:19;;;;;;;19.10;17.93;;;;;;;;;;5110558;28;20454;-72
2023/11/16 03:35:48;;;;;;;21.10;19.17;;;;;;;;;;5119775;27;20850;-73
2023/11/16 03:38:17;;;;;;;21.43;19.87;;;;;;;;;;5131130;27;20554;-72
2023/11/16 03:40:44;;;;;;;21.03;19.40;;;;;;;;;;5130804;28;20507;-73
2023/11/16 03:43:12;;;;;;;21.20;19.60;;;;;;;;;;5130532;27;20489;-73
2023/11/16 03:45:40;;;;;;;22.50;20.10;;;;;;;;;;5130320;28;20473;-74
2023/11/16 03:48:09;;;;;;;23.50;21.70;;;;;;;;;;5130918;28;20494;-74
2023/11/16 03:50:39;;;;;;;26.03;23.70;;;;;;;;;;5130840;28;20443;-73
2023/11/16 03:53:07;;;;;;;21.23;20.00;;;;;;;;;;5131094;28;20434;-72
2023/11/16 03:55:34;;;;;;;21.60;20.00;;;;;;;;;;5130575;28;20538;-73
2023/11/16 03:58:01;;;;;;;24.30;22.37;;;;;;;;;;5131190;28;20553;-74
2023/11/16 04:00:30;;;;;;;25.77;23.50;;;;;;;;;;5131100;28;20439;-72
2023/11/16 04:02:58;;;;;;;22.87;21.17;;;;;;;;;;5130717;28;20458;-74
2023/11/16 04:05:26;;;;;;;25.83;23.30;;;;;;;;;;5130755;28;20451;-74
2023/11/16 04:07:55;;;;;;;27.17;22.23;;;;;;;;;;5130828;28;20551;-73
2023/11/16 04:10:21;;;;;;;26.23;22.13;;;;;;;;;;5130997;28;20446;-72
2023/11/16 04:12:48;;;;;;;25.20;22.80;;;;;;;;;;5131032;28;20455;-74
2023/11/16 04:15:15;;;;;;;23.33;21.20;;;;;;;;;;5129944;28;20437;-74
2023/11/16 04:17:43;;;;;;;22.67;21.00;;;;;;;;;;5130904;28;20523;-73
2023/11/16 04:20:11;;;;;;;21.50;19.80;;;;;;;;;;5130682;28;20478;-73
2023/11/16 04:22:39;;;;;;;22.53;20.77;;;;;;;;;;5132850;27;20449;-75
2023/11/16 04:25:11;;;;;;;21.37;19.67;;;;;;;;;;5134086;27;20447;-76
2023/11/16 04:27:38;;;;;;;23.00;19.93;;;;;;;;;;5134445;27;20536;-77
2023/11/16 04:30:06;;;;;;;20.40;19.20;;;;;;;;;;5134087;27;20562;-77
2023/11/16 04:32:33;;;;;;;22.00;20.50;;;;;;;;;;5134183;27;20523;-75
2023/11/16 04:35:00;;;;;;;22.50;20.43;;;;;;;;;;5133444;27;20966;-75
2023/11/16 04:37:27;;;;;;;22.27;20.40;;;;;;;;;;5134114;27;20463;-75
2023/11/16 04:39:54;;;;;;;21.63;19.83;;;;;;;;;;5134238;27;20541;-76
2023/11/16 04:42:23;;;;;;;25.60;23.40;;;;;;;;;;5134026;27;20460;-75
2023/11/16 04:44:50;;;;;;;39.47;35.20;;;;;;;;;;5133994;27;20488;-75
2023/11/16 04:47:18;;;;;;;37.57;31.30;;;;;;;;;;5133864;27;20477;-76
2023/11/16 04:49:45;;;;;;;29.60;25.50;;;;;;;;;;5134681;27;20451;-74
2023/11/16 04:52:12;;;;;;;29.00;25.93;;;;;;;;;;5134082;27;20520;-75
2023/11/16 04:54:39;;;;;;;27.17;24.63;;;;;;;;;;5133418;27;20828;-76
2023/11/16 04:57:07;;;;;;;56.63;47.97;;;;;;;;;;5133836;27;20496;-75
2023/11/16 04:59:35;;;;;;;52.93;41.60;;;;;;;;;;5133946;27;20439;-75
2023/11/16 05:02:02;;;;;;;32.53;28.37;;;;;;;;;;5133845;27;20424;-76
2023/11/16 05:04:29;;;;;;;188.50;133.67;;;;;;;;;;5132424;27;20463;-75
2023/11/16 05:06:56;;;;;;;35.43;31.63;;;;;;;;;;5133968;27;20526;-75
2023/11/16 05:09:23;;;;;;;43.30;38.93;;;;;;;;;;5133275;27;20485;-75
2023/11/16 05:11:51;;;;;;;39.40;35.97;;;;;;;;;;5133592;27;20462;-75
2023/11/16 05:14:19;;;;;;;34.77;31.70;;;;;;;;;;5133096;27;20526;-75
2023/11/16 05:16:47;;;;;;;30.03;27.10;;;;;;;;;;5133591;27;20442;-75
2023/11/16 05:19:14;;;;;;;24.07;22.37;;;;;;;;;;5133671;27;20459;-76
2023/11/16 05:21:41;;;;;;;23.03;21.57;;;;;;;;;;5133680;27;20450;-76
2023/11/16 05:24:09;;;;;;;23.70;21.90;;;;;;;;;;5128605;27;20819;-75
2023/11/16 05:26:38;;;;;;;23.43;21.23;;;;;;;;;;5112694;28;20451;-77
2023/11/16 05:29:05;;;;;;;24.30;22.50;;;;;;;;;;5112401;28;20523;-75
2023/11/16 05:31:32;;;;;;;81.37;56.83;;;;;;;;;;5112682;28;20535;-75
2023/11/16 05:34:01;;;;;;;26.50;24.00;;;;;;;;;;5112065;28;20444;-76
2023/11/16 05:36:29;;;;;;;21.27;20.03;;;;;;;;;;5113045;28;20450;-76
2023/11/16 05:38:56;;;;;;;21.50;19.90;;;;;;;;;;5112061;28;20483;-77
2023/11/16 05:41:23;;;;;;;22.00;20.13;;;;;;;;;;5112258;28;20452;-75
2023/11/16 05:43:51;;;;;;;25.77;24.00;;;;;;;;;;5111694;28;20905;-75
2023/11/16 05:46:18;;;;;;;23.30;21.20;;;;;;;;;;5112675;28;20454;-76
2023/11/16 05:48:45;;;;;;;21.03;19.40;;;;;;;;;;5112237;28;20487;-76
2023/11/16 05:51:14;;;;;;;22.20;20.60;;;;;;;;;;5112186;28;20538;-74
2023/11/16 05:53:42;;;;;;;22.97;21.40;;;;;;;;;;5111961;28;20418;-76
2023/11/16 05:56:09;;;;;;;23.30;21.40;;;;;;;;;;5111833;28;20448;-75
2023/11/16 05:58:36;;;;;;;22.57;21.20;;;;;;;;;;5111913;28;20483;-76
2023/11/16 06:01:03;;;;;;;22.47;20.53;;;;;;;;;;5112206;28;20448;-75
2023/11/16 06:03:32;;;;;;;24.07;21.50;;;;;;;;;;5111418;28;20516;-77
2023/11/16 06:05:59;;;;;;;24.33;22.53;;;;;;;;;;5111583;28;20470;-74
2023/11/16 06:08:29;;;;;;;24.40;22.20;;;;;;;;;;5112143;28;20600;-76
2023/11/16 06:10:56;;;;;;;23.90;21.70;;;;;;;;;;5112111;28;20455;-76
2023/11/16 06:13:23;;;;;;;24.00;21.90;;;;;;;;;;5112261;28;20440;-76
2023/11/16 06:15:52;;;;;;;22.77;20.57;;;;;;;;;;5111237;28;20943;-76
2023/11/16 06:18:19;;;;;;;24.50;22.50;;;;;;;;;;5111906;28;20558;-76
2023/11/16 06:20:46;;;;;;;22.43;20.83;;;;;;;;;;5112113;28;20428;-76
2023/11/16 06:23:13;;;;;;;23.47;21.60;;;;;;;;;;5111250;28;20463;-74
2023/11/16 06:25:42;;;;;;;24.57;22.27;;;;;;;;;;5111216;28;20450;-76
2023/11/16 06:28:10;;;;;;;26.63;21.33;;;;;;;;;;5127298;27;20488;-76
2023/11/16 06:30:39;;;;;;;24.43;22.30;;;;;;;;;;5111730;28;20584;-75
2023/11/16 06:33:06;;;;;;;25.03;23.30;;;;;;;;;;5111706;28;20478;-77
2023/11/16 06:35:33;;;;;;;23.90;22.33;;;;;;;;;;5110739;28;20950;-75
2023/11/16 06:38:00;;;;;;;28.17;25.93;;;;;;;;;;5111331;28;20459;-76
2023/11/16 06:40:28;;;;;;;25.30;23.37;;;;;;;;;;5111498;28;20454;-75
2023/11/16 06:42:56;;;;;;;26.93;24.90;;;;;;;;;;5111084;28;20464;-75
2023/11/16 06:45:24;;;;;;;26.20;24.07;;;;;;;;;;5109978;28;20451;-75
2023/11/16 06:47:51;;;;;;;28.93;26.57;;;;;;;;;;5111440;28;20500;-75
2023/11/16 06:50:18;;;;;;;47.20;29.37;;;;;;;;;;5111214;28;20451;-75
2023/11/16 06:52:47;;;;;;;30.10;27.70;;;;;;;;;;5110685;28;20486;-75
2023/11/16 06:55:17;;;;;;;32.43;30.00;;;;;;;;;;5110869;28;20547;-75
2023/11/16 06:57:44;;;;;;;36.80;34.17;;;;;;;;;;5110625;28;20472;-76
2023/11/16 07:00:16;;;;;;;40.27;36.30;;;;;;;;;;5116615;27;20439;-76
2023/11/16 07:02:45;;;;;;;41.60;38.33;;;;;;;;;;5131732;27;20484;-76
2023/11/16 07:05:12;;;;;;;47.77;43.20;;;;;;;;;;5130750;27;20954;-76
2023/11/16 07:07:39;;;;;;;41.03;37.43;;;;;;;;;;5131500;27;20543;-75
2023/11/16 07:10:08;;;;;;;41.80;38.10;;;;;;;;;;5131411;27;20493;-76
2023/11/16 07:12:35;;;;;;;43.00;38.70;;;;;;;;;;5131246;27;20500;-75
2023/11/16 07:15:05;;;;;;;41.70;38.20;;;;;;;;;;5130463;27;20462;-75
2023/11/16 07:17:34;;;;;;;43.13;39.73;;;;;;;;;;5130978;27;20433;-77
2023/11/16 07:20:01;;;;;;;39.70;36.20;;;;;;;;;;5130657;27;20431;-75
2023/11/16 07:22:29;;;;;;;41.38;37.20;;;;;;;;;;5120548;27;20455;-75
2023/11/16 07:24:56;;;;;;;42.90;39.20;;;;;;;;;;5118949;27;20201;-75
2023/11/16 07:27:23;;;;;;;40.13;36.93;;;;;;;;;;5130619;27;20560;-75
2023/11/16 07:29:50;;;;;;;40.70;36.87;;;;;;;;;;5130963;27;20475;-76
2023/11/16 07:32:17;;;;;;;41.83;38.03;;;;;;;;;;5130706;27;20469;-75
2023/11/16 07:34:46;;;;;;;44.77;40.10;;;;;;;;;;5122785;27;20476;-85
2023/11/16 07:37:13;;;;;;;46.23;41.90;;;;;;;;;;5115732;28;20550;-89
2023/11/16 07:39:44;;;;;;;46.37;42.13;;;;;;;;;;5117193;28;20451;-85
2023/11/16 07:42:13;;;;;;;45.23;41.10;;;;;;;;;;5116388;28;20456;-85
2023/11/16 07:44:43;;;;;;;45.53;41.53;;;;;;;;;;5116368;28;20502;-88
2023/11/16 07:47:10;;;;;;;43.50;39.10;;;;;;;;;;5114332;28;20460;-84
2023/11/16 07:49:38;;;;;;;42.70;38.73;;;;;;;;;;5113352;28;20480;-83
2023/11/16 07:52:07;;;;;;;42.30;38.00;;;;;;;;;;5115741;28;20455;-83
2023/11/16 07:54:43;;;;;;;41.33;37.17;;;;;;;;;;5109914;28;20499;-76
2023/11/16 07:57:20;;;;;;;39.20;35.97;;;;;;;;;;5113839;28;20447;-75
2023/11/16 07:59:47;;;;;;;37.93;34.20;;;;;;;;;;5114355;28;20427;-75
2023/11/16 08:02:16;;;;;;;40.80;37.20;;;;;;;;;;5115086;28;20452;-80
2023/11/16 08:04:43;;;;;;;42.73;38.23;;;;;;;;;;5114359;28;20451;-77
2023/11/16 08:07:11;;;;;;;43.90;39.10;;;;;;;;;;5114340;27;20935;-77
2023/11/16 08:09:38;;;;;;;43.80;39.20;;;;;;;;;;5115621;28;20533;-78
2023/11/16 08:12:07;;;;;;;43.27;38.90;;;;;;;;;;5121614;28;20443;-85
2023/11/16 08:14:34;;;;;;;45.63;41.70;;;;;;;;;;5122788;28;20444;-86
2023/11/16 08:17:02;;;;;;;42.23;38.03;;;;;;;;;;5122995;28;20455;-86
2023/11/16 08:19:31;;;;;;;39.73;36.27;;;;;;;;;;5123113;28;20443;-81
2023/11/16 08:21:59;;;;;;;41.50;37.20;;;;;;;;;;5116279;28;20490;-78
2023/11/16 08:24:27;;;;;;;40.47;37.07;;;;;;;;;;5113406;28;20447;-82
2023/11/16 08:26:56;;;;;;;41.87;38.00;;;;;;;;;;5117930;28;20444;-87
2023/11/16 08:29:23;;;;;;;42.87;34.93;;;;;;;;;;5116085;28;20474;-79
2023/11/16 08:31:52;;;;;;;39.93;36.13;;;;;;;;;;5118699;28;20448;-78
2023/11/16 08:34:19;;;;;;;38.20;34.70;;;;;;;;;;5118353;28;20950;-79
2023/11/16 08:36:47;;;;;;;42.80;36.43;;;;;;;;;;5122022;28;20827;-81
2023/11/16 08:39:17;;;;;;;39.50;35.57;;;;;;;;;;5122485;28;20532;-79
2023/11/16 08:41:46;;;;;;;40.13;36.20;;;;;;;;;;5122950;28;20464;-81
2023/11/16 08:44:16;;;;;;;36.67;33.43;;;;;;;;;;5118044;28;20504;-79
2023/11/16 08:46:45;;;;;;;37.00;33.20;;;;;;;;;;5119305;28;20469;-79
2023/11/16 08:49:13;;;;;;;39.27;35.17;;;;;;;;;;5117154;28;20495;-78
2023/11/16 08:51:40;;;;;;;36.73;32.93;;;;;;;;;;5117364;28;20448;-79
2023/11/16 08:54:08;;;;;;;37.97;34.67;;;;;;;;;;5120189;27;20474;-83
2023/11/16 08:56:35;;;;;;;36.17;32.53;;;;;;;;;;5130220;27;20466;-84
2023/11/16 08:59:07;;;;;;;34.20;30.80;;;;;;;;;;5121854;28;20468;-84
2023/11/16 09:01:35;;;;;;;32.23;29.33;;;;;;;;;;5122549;28;20440;-83
2023/11/16 09:04:02;;;;;;;35.07;31.87;;;;;;;;;;5121569;28;20505;-83
2023/11/16 09:06:30;;;;;;;31.57;28.70;;;;;;;;;;5122343;28;20509;-83
2023/11/16 09:08:59;;;;;;;34.70;31.30;;;;;;;;;;5121598;28;20602;-84
2023/11/16 09:11:27;;;;;;;33.90;31.07;;;;;;;;;;5121490;28;20448;-87
2023/11/16 09:13:54;;;;;;;32.50;29.60;;;;;;;;;;5117607;28;20491;-87
2023/11/16 09:16:22;;;;;;;33.70;30.30;;;;;;;;;;5117718;28;20440;-84
2023/11/16 09:18:49;;;;;;;32.17;29.30;;;;;;;;;;5118414;28;20468;-82
2023/11/16 09:21:17;;;;;;;32.50;29.30;;;;;;;;;;5117746;28;20443;-82
2023/11/16 09:23:44;;;;;;;33.30;30.40;;;;;;;;;;5117341;28;20444;-82
2023/11/16 09:26:11;;;;;;;29.07;26.97;;;;;;;;;;5117461;28;20471;-82
2023/11/16 09:31:41;;;;;;;30.60;27.83;;;;;;;;;;5084327;28;20529;-82
2023/11/16 09:34:09;;;;;;;29.33;27.00;;;;;;;;;;5117280;28;20799;-81
2023/11/16 09:36:38;;;;;;;27.87;25.80;;;;;;;;;;5123867;27;20451;-80
2023/11/16 09:39:08;;;;;;;29.60;27.33;;;;;;;;;;5133558;27;20467;-77
2023/11/16 09:41:36;;;;;;;29.30;26.90;;;;;;;;;;5131534;27;21164;-78
2023/11/16 09:44:07;;;;;;;27.70;25.50;;;;;;;;;;5121089;27;20452;-82
2023/11/16 09:46:34;;;;;;;28.27;25.83;;;;;;;;;;5130342;27;20446;-78
2023/11/16 09:49:06;;;;;;;27.93;25.57;;;;;;;;;;5122992;27;21074;-81
2023/11/16 09:51:35;;;;;;;27.57;25.30;;;;;;;;;;5137468;27;20454;-78
2023/11/16 09:54:03;;;;;;;27.00;25.20;;;;;;;;;;5136462;27;20454;-76
2023/11/16 09:56:31;;;;;;;27.77;25.60;;;;;;;;;;5132854;27;20458;-75
2023/11/16 09:59:13;;;;;;;27.00;24.97;;;;;;;;;;5114761;27;20476;-76
2023/11/16 10:01:46;;;;;;;28.37;25.80;;;;;;;;;;5112722;28;20634;-79
2023/11/16 10:04:14;;;;;;;28.83;25.83;;;;;;;;;;5113752;28;20440;-78
2023/11/16 10:06:48;;;;;;;27.80;25.63;;;;;;;;;;5115454;28;20447;-84
2023/11/16 10:09:15;;;;;;;26.60;24.70;;;;;;;;;;5123242;28;20487;-81
2023/11/16 10:11:42;;;;;;;26.53;24.80;;;;;;;;;;5125216;27;20467;-83
2023/11/16 10:14:09;;;;;;;28.93;26.23;;;;;;;;;;5125758;27;20455;-84
2023/11/16 10:16:36;;;;;;;27.53;25.40;;;;;;;;;;5118012;28;20447;-77
2023/11/16 10:19:06;;;;;;;27.70;25.30;;;;;;;;;;5119302;27;20479;-76
2023/11/16 10:21:35;;;;;;;28.13;26.00;;;;;;;;;;5132874;27;20507;-79
2023/11/16 10:24:08;;;;;;;29.37;27.20;;;;;;;;;;5133160;27;20450;-76
2023/11/16 10:26:38;;;;;;;29.73;26.97;;;;;;;;;;5136377;27;20466;-80
2023/11/16 10:32:09;;;;;;;29.20;27.03;;;;;;;;;;5126742;27;20812;-79
2023/11/16 10:34:37;;;;;;;28.67;26.60;;;;;;;;;;5113000;28;20436;-79
2023/11/16 10:37:09;;;;;;;26.03;24.40;;;;;;;;;;5113024;28;20482;-77
2023/11/16 10:39:37;;;;;;;27.43;25.50;;;;;;;;;;5111889;28;20532;-75
2023/11/16 10:42:05;;;;;;;28.43;25.70;;;;;;;;;;5112851;27;20468;-77
2023/11/16 10:44:32;;;;;;;28.13;25.97;;;;;;;;;;5110471;28;20944;-76
2023/11/16 10:47:00;;;;;;;27.07;25.10;;;;;;;;;;5111738;27;20458;-75
2023/11/16 10:49:29;;;;;;;26.07;24.30;;;;;;;;;;5110871;28;20480;-75
2023/11/16 10:51:56;;;;;;;25.30;23.30;;;;;;;;;;5111315;28;20479;-79
2023/11/16 10:54:30;;;;;;;25.70;23.20;;;;;;;;;;5111378;28;20936;-78
2023/11/16 10:56:58;;;;;;;24.00;21.93;;;;;;;;;;5111011;28;20443;-77
2023/11/16 10:59:26;;;;;;;24.07;21.97;;;;;;;;;;5110473;28;20447;-78
2023/11/16 11:01:54;;;;;;;24.20;22.33;;;;;;;;;;5109943;28;20467;-78
2023/11/16 11:04:22;;;;;;;24.60;22.70;;;;;;;;;;5109925;28;20501;-79
2023/11/16 11:06:50;;;;;;;24.67;23.07;;;;;;;;;;5110400;28;20543;-78
2023/11/16 11:09:22;;;;;;;24.70;22.80;;;;;;;;;;5110124;28;20479;-78
2023/11/16 11:11:53;;;;;;;24.80;23.00;;;;;;;;;;5109638;28;20467;-78
2023/11/16 11:14:25;;;;;;;25.23;23.73;;;;;;;;;;5109694;28;20915;-78
2023/11/16 11:16:52;;;;;;;23.33;21.60;;;;;;;;;;5109838;28;20452;-79
2023/11/16 11:19:29;;;;;;;24.33;22.27;;;;;;;;;;5109910;28;20459;-78
2023/11/16 11:22:00;;;;;;;23.53;21.63;;;;;;;;;;5109718;28;20471;-76
2023/11/16 11:24:27;;;;;;;22.53;20.80;;;;;;;;;;5109714;28;20439;-78
2023/11/16 11:26:57;;;;;;;24.00;22.10;;;;;;;;;;5109774;28;20935;-78
2023/11/16 11:29:25;;;;;;;24.13;21.87;;;;;;;;;;5109918;28;20522;-78
2023/11/16 11:32:02;;;;;;;24.27;22.60;;;;;;;;;;5110158;28;20512;-79
2023/11/16 11:34:31;;;;;;;23.17;21.43;;;;;;;;;;5109557;28;20885;-79
2023/11/16 11:36:58;;;;;;;23.73;21.90;;;;;;;;;;5109848;28;20869;-76
2023/11/16 11:39:35;;;;;;;23.80;21.73;;;;;;;;;;5108929;28;20455;-75
2023/11/16 11:42:04;;;;;;;23.23;21.63;;;;;;;;;;5108655;28;20455;-76
2023/11/16 11:44:31;;;;;;;23.50;21.90;;;;;;;;;;5116061;28;20467;-75
2023/11/16 11:46:59;;;;;;;23.73;21.67;;;;;;;;;;5130307;28;20499;-75
2023/11/16 11:49:26;;;;;;;22.90;21.40;;;;;;;;;;5131285;28;20455;-76
2023/11/16 11:51:54;;;;;;;22.07;20.53;;;;;;;;;;5131302;28;20455;-75
2023/11/16 11:54:21;;;;;;;23.63;22.23;;;;;;;;;;5110007;28;20458;-77
2023/11/16 11:56:48;;;;;;;21.70;20.20;;;;;;;;;;5110628;28;20947;-75
2023/11/16 11:59:20;;;;;;;22.30;20.70;;;;;;;;;;5110615;28;20722;-75
2023/11/16 12:01:47;;;;;;;22.27;20.57;;;;;;;;;;5110749;28;20446;-75
2023/11/16 12:04:14;;;;;;;23.33;21.73;;;;;;;;;;5109485;28;20509;-76
2023/11/16 12:06:41;;;;;;;22.90;21.30;;;;;;;;;;5110701;28;20451;-76
2023/11/16 12:09:09;;;;;;;22.03;20.37;;;;;;;;;;5110354;28;20809;-76
2023/11/16 12:11:36;;;;;;;23.30;21.90;;;;;;;;;;5110265;28;20484;-76
2023/11/16 12:14:07;;;;;;;22.97;21.03;;;;;;;;;;5117523;27;20493;-76
2023/11/16 12:16:35;;;;;;;23.03;21.57;;;;;;;;;;5130958;28;20492;-77
2023/11/16 12:19:08;;;;;;;22.97;21.37;;;;;;;;;;5130926;28;20464;-75
2023/11/16 12:21:39;;;;;;;23.93;21.93;;;;;;;;;;5130913;28;20850;-76
2023/11/16 12:24:08;;;;;;;24.00;22.30;;;;;;;;;;5110710;28;21237;-77
2023/11/16 12:26:35;;;;;;;23.90;21.97;;;;;;;;;;5111489;28;20444;-76
2023/11/16 12:29:15;;;;;;;23.33;21.77;;;;;;;;;;5129768;27;20982;-76
2023/11/16 12:31:43;;;;;;;23.47;22.00;;;;;;;;;;5134369;28;20970;-76
2023/11/16 12:34:10;;;;;;;23.27;21.57;;;;;;;;;;5122229;28;20483;-77
2023/11/16 12:36:44;;;;;;;23.17;21.77;;;;;;;;;;5110131;28;20444;-76
2023/11/16 12:39:13;;;;;;;23.10;21.50;;;;;;;;;;5109755;28;20479;-75
2023/11/16 12:41:40;;;;;;;23.47;21.27;;;;;;;;;;5115626;28;20460;-76
2023/11/16 12:44:08;;;;;;;22.33;20.93;;;;;;;;;;5112524;28;20454;-76
2023/11/16 12:46:35;;;;;;;22.60;20.80;;;;;;;;;;5114050;28;20490;-76
2023/11/16 12:49:04;;;;;;;22.00;20.53;;;;;;;;;;5113475;28;21001;-75
2023/11/16 12:51:31;;;;;;;22.17;20.70;;;;;;;;;;5119898;27;20466;-78
2023/11/16 12:53:59;;;;;;;23.30;21.80;;;;;;;;;;5132953;27;20454;-79
2023/11/16 12:56:26;;;;;;;22.27;20.87;;;;;;;;;;5122217;27;20460;-77
2023/11/16 12:58:53;;;;;;;21.90;20.50;;;;;;;;;;5114369;28;20479;-76
2023/11/16 13:01:20;;;;;;;21.77;20.33;;;;;;;;;;5114289;28;20793;-80
2023/11/16 13:03:47;;;;;;;24.57;22.73;;;;;;;;;;5113727;28;20912;-78
2023/11/16 13:06:16;;;;;;;24.57;22.83;;;;;;;;;;5114888;27;20456;-76
2023/11/16 13:08:43;;;;;;;24.70;23.00;;;;;;;;;;5113812;28;20455;-76
2023/11/16 13:11:13;;;;;;;22.10;20.13;;;;;;;;;;5113724;28;20876;-78
2023/11/16 13:13:40;;;;;;;22.07;20.60;;;;;;;;;;5113399;28;20446;-77
2023/11/16 13:16:08;;;;;;;21.37;20.17;;;;;;;;;;5133451;27;20427;-77
2023/11/16 13:18:35;;;;;;;22.00;20.40;;;;;;;;;;5134284;27;20456;-77
2023/11/16 13:21:09;;;;;;;22.53;20.83;;;;;;;;;;5134463;27;20851;-77
2023/11/16 13:23:37;;;;;;;22.00;20.67;;;;;;;;;;5134374;27;20454;-77
2023/11/16 13:26:04;;;;;;;21.10;19.73;;;;;;;;;;5133435;27;20911;-77
2023/11/16 13:28:32;;;;;;;21.73;20.07;;;;;;;;;;5133971;27;20467;-77
2023/11/16 13:31:01;;;;;;;21.20;20.00;;;;;;;;;;5134106;27;20478;-76
2023/11/16 13:33:28;;;;;;;22.03;20.53;;;;;;;;;;5133888;27;20451;-76
2023/11/16 13:35:55;;;;;;;22.13;20.27;;;;;;;;;;5133170;27;20447;-76
2023/11/16 13:38:22;;;;;;;21.27;19.90;;;;;;;;;;5112582;27;20492;-78
2023/11/16 13:40:51;;;;;;;22.13;20.80;;;;;;;;;;5112913;28;20489;-77
2023/11/16 13:43:18;;;;;;;22.00;20.10;;;;;;;;;;5126583;27;20463;-76
2023/11/16 13:45:45;;;;;;;21.90;20.10;;;;;;;;;;5114291;27;20530;-76
2023/11/16 13:48:12;;;;;;;21.50;20.20;;;;;;;;;;5112731;28;20476;-76
2023/11/16 13:50:41;;;;;;;21.03;19.73;;;;;;;;;;5112556;28;20523;-76
2023/11/16 13:53:09;;;;;;;23.00;21.13;;;;;;;;;;5112710;28;20495;-76
2023/11/16 13:55:36;;;;;;;20.87;19.47;;;;;;;;;;5111991;28;20447;-77
2023/11/16 13:58:05;;;;;;;21.70;20.00;;;;;;;;;;5112679;28;20537;-76
2023/11/16 14:00:32;;;;;;;21.10;19.70;;;;;;;;;;5112495;28;20907;-77
2023/11/16 14:02:59;;;;;;;21.60;20.00;;;;;;;;;;5112519;28;20427;-76
2023/11/16 14:05:26;;;;;;;22.37;20.60;;;;;;;;;;5111202;28;20959;-76
2023/11/16 14:07:54;;;;;;;22.27;20.50;;;;;;;;;;5112220;28;20475;-76
2023/11/16 14:10:22;;;;;;;21.63;20.23;;;;;;;;;;5112324;28;20444;-76
2023/11/16 14:12:51;;;;;;;21.60;20.20;;;;;;;;;;5112057;28;21003;-76
2023/11/16 14:15:20;;;;;;;21.90;19.80;;;;;;;;;;5111707;28;20455;-76
2023/11/16 14:17:47;;;;;;;21.43;20.03;;;;;;;;;;5113637;28;20471;-79
2023/11/16 14:20:14;;;;;;;21.43;19.80;;;;;;;;;;5112674;28;20559;-77
2023/11/16 14:22:41;;;;;;;20.87;19.60;;;;;;;;;;5111567;28;20452;-78
2023/11/16 14:25:09;;;;;;;20.10;18.90;;;;;;;;;;5110096;28;20431;-77
2023/11/16 14:27:36;;;;;;;20.07;18.73;;;;;;;;;;5117249;27;20471;-76